Ocean Drive — ZGCA7 — position and weather

sailwx.info

Track history (hours):
 
Tides and Currents Weather Stations Pressure Air Temp Water Temp Dewpoint Dewpoint Depression Visibility Wind Speed Wind Dir Waves Ship Positions

Ocean Drive

Last reported at 2015-Aug-30 08:15 UTC. Time now 2015-Aug-30 20:00 UTC.
Position N 39°23' W 074°26'.

; draft 2 m.

MMSI: 319901000.

Date/timePositionNaut miles runAvg speedWind from/ knotsBaromVisibWave heightAir tempDewpointWater temp
2015-Aug-30 08:15N 39°23' W 074°26'0 0.0
2015-Aug-29 12:33N 39°23' W 074°26'155 7.7
2015-Aug-28 16:27N 41°08' W 071°56'8 8.5
2015-Aug-28 15:33N 41°09' W 072°06'7 7.3
2015-Aug-28 14:34N 41°03' W 072°11'2 2.4
2015-Aug-28 13:33N 41°00' W 072°11'0 0.0
2015-Aug-28 12:33N 41°00' W 072°11'0 0.0
2015-Aug-28 11:33N 41°00' W 072°11'0 0.0
2015-Aug-28 10:27N 41°00' W 072°11'0 0.0
2015-Aug-28 09:33N 41°00' W 072°11'0 0.0
2015-Aug-28 08:33N 41°00' W 072°11'0 0.0
2015-Aug-28 07:33N 41°00' W 072°11'0 0.0
2015-Aug-28 06:33N 41°00' W 072°11'0 0.0
2015-Aug-28 05:33N 41°00' W 072°11'0 0.0
2015-Aug-28 04:33N 41°00' W 072°11'0 0.0
2015-Aug-28 03:33N 41°00' W 072°11'0 0.0
2015-Aug-28 02:33N 41°00' W 072°11'0 0.0
2015-Aug-28 01:33N 41°00' W 072°11'0 0.0
2015-Aug-28 00:33N 41°00' W 072°11'0 0.0
2015-Aug-27 23:33N 41°00' W 072°11'0 0.0
2015-Aug-27 22:33N 41°00' W 072°11'0 0.0
2015-Aug-27 21:30N 41°00' W 072°11'0 0.0
2015-Aug-27 20:33N 41°00' W 072°11'0 0.0
2015-Aug-27 19:33N 41°00' W 072°11'0 0.0
2015-Aug-27 18:33N 41°00' W 072°11'0 0.0
2015-Aug-27 17:33N 41°00' W 072°11'0 0.0
2015-Aug-27 16:30N 41°00' W 072°11'0 0.0
2015-Aug-27 15:33N 41°00' W 072°11'0 0.0
2015-Aug-27 14:27N 41°00' W 072°11'0 0.0
2015-Aug-27 13:33N 41°00' W 072°11'0 0.0
2015-Aug-27 12:33N 41°00' W 072°11'0 0.0
2015-Aug-27 11:33N 41°00' W 072°11'0 0.0
2015-Aug-27 10:33N 41°00' W 072°11'0 0.0
2015-Aug-27 09:33N 41°00' W 072°11'0 0.0
2015-Aug-27 08:33N 41°00' W 072°11'0 0.0
2015-Aug-27 07:33N 41°00' W 072°11'0 0.0
2015-Aug-27 06:33N 41°00' W 072°11'0 0.0
2015-Aug-27 05:33N 41°00' W 072°11'0 0.0
2015-Aug-27 04:33N 41°00' W 072°11'0 0.0
2015-Aug-27 03:33N 41°00' W 072°11'0 0.0
2015-Aug-27 02:33N 41°00' W 072°11'0 0.0
2015-Aug-27 01:33N 41°00' W 072°11'0 0.0
2015-Aug-27 00:33N 41°00' W 072°11'0 0.0
2015-Aug-26 23:33N 41°00' W 072°11'0 0.0
2015-Aug-26 22:33N 41°00' W 072°11'0 0.0
2015-Aug-26 21:33N 41°00' W 072°11'0 0.0
2015-Aug-26 20:33N 41°00' W 072°11'0 0.0
2015-Aug-26 19:33N 41°00' W 072°11'0 0.0
2015-Aug-26 18:33N 41°00' W 072°11'0 0.0
2015-Aug-26 17:33N 41°00' W 072°11'0 0.0
2015-Aug-26 16:33N 41°00' W 072°11'0 0.0
2015-Aug-26 15:33N 41°00' W 072°11'0 0.0
2015-Aug-26 14:33N 41°00' W 072°11'0 0.0
2015-Aug-26 13:32N 41°00' W 072°11'0 0.0
2015-Aug-26 12:33N 41°00' W 072°11'0 0.0
2015-Aug-26 11:32N 41°00' W 072°11'0 0.0
2015-Aug-26 10:32N 41°00' W 072°11'0 0.0
2015-Aug-26 09:32N 41°00' W 072°11'0 0.0
2015-Aug-26 08:29N 41°00' W 072°11'0 0.0
2015-Aug-26 07:33N 41°00' W 072°11'0 0.0
2015-Aug-26 06:32N 41°00' W 072°11'0 0.0
2015-Aug-26 05:32N 41°00' W 072°11'0 0.0
2015-Aug-26 04:33N 41°00' W 072°11'0 0.0
2015-Aug-26 03:32N 41°00' W 072°11'0 0.0
2015-Aug-26 02:32N 41°00' W 072°11'0 0.0
2015-Aug-26 01:32N 41°00' W 072°11'0 0.0
2015-Aug-26 00:32N 41°00' W 072°11'0 0.0
2015-Aug-25 23:32N 41°00' W 072°11'0 0.0
2015-Aug-25 22:32N 41°00' W 072°11'0 0.0
2015-Aug-25 21:32N 41°00' W 072°11'0 0.0
2015-Aug-25 20:32N 41°00' W 072°11'0 0.0
2015-Aug-25 19:32N 41°00' W 072°11'0 0.0
2015-Aug-25 18:32N 41°00' W 072°11'0 0.0
2015-Aug-25 17:32N 41°00' W 072°11'0 0.0
2015-Aug-25 16:32N 41°00' W 072°11'0 0.0
2015-Aug-25 15:32N 41°00' W 072°11'0 0.0
2015-Aug-25 14:32N 41°00' W 072°11'0 0.0
2015-Aug-25 13:32N 41°00' W 072°11'0 0.0
2015-Aug-25 12:32N 41°00' W 072°11'0 0.0
2015-Aug-25 11:32N 41°00' W 072°11'0 0.0
2015-Aug-25 10:32N 41°00' W 072°11'0 0.0
2015-Aug-25 09:32N 41°00' W 072°11'0 0.0
2015-Aug-25 08:32N 41°00' W 072°11'0 0.0
2015-Aug-25 07:32N 41°00' W 072°11'0 0.0
2015-Aug-25 06:32N 41°00' W 072°11'0 0.0
2015-Aug-25 05:32N 41°00' W 072°11'0 0.0
2015-Aug-25 04:29N 41°00' W 072°11'0 0.0
2015-Aug-25 03:32N 41°00' W 072°11'0 0.0
2015-Aug-25 02:32N 41°00' W 072°11'0 0.0
2015-Aug-25 01:32N 41°00' W 072°11'0 0.0
2015-Aug-25 00:32N 41°00' W 072°11'0 0.0
2015-Aug-24 23:32N 41°00' W 072°11'0 0.0
2015-Aug-24 22:32N 41°00' W 072°11'0 0.0
2015-Aug-24 21:32N 41°00' W 072°11'0 0.0
2015-Aug-24 20:32N 41°00' W 072°11'0 0.0
2015-Aug-24 19:29N 41°00' W 072°11'0 0.0
2015-Aug-24 18:32N 41°00' W 072°11'0 0.0
2015-Aug-24 17:32N 41°00' W 072°11'0 0.0
2015-Aug-24 12:32N 41°00' W 072°11'0 0.0
2015-Aug-24 11:26N 41°00' W 072°11'0 0.0
2015-Aug-24 10:29N 41°00' W 072°11'0 0.0
2015-Aug-24 09:32N 41°00' W 072°11'0 0.0
2015-Aug-24 08:32N 41°00' W 072°11'0 0.0
2015-Aug-24 07:32N 41°00' W 072°11'0 0.0
2015-Aug-24 06:32N 41°00' W 072°11'0 0.0
2015-Aug-24 05:32N 41°00' W 072°11'0 0.0
2015-Aug-24 04:29N 41°00' W 072°11'0 0.0
2015-Aug-24 03:32N 41°00' W 072°11'0 0.0
2015-Aug-24 02:32N 41°00' W 072°11'0 0.0
2015-Aug-24 01:33N 41°00' W 072°11'0 0.0
2015-Aug-24 00:33N 41°00' W 072°11'0 0.0
2015-Aug-23 23:33N 41°00' W 072°11'0 0.0
2015-Aug-23 22:33N 41°00' W 072°11'6 5.9
2015-Aug-23 21:33N 41°05' W 072°07'0 0.0
2015-Aug-23 20:32N 41°05' W 072°07'0 0.0
2015-Aug-23 19:32N 41°05' W 072°07'0 0.0
2015-Aug-23 18:32N 41°05' W 072°07'4 4.0
2015-Aug-23 17:33N 41°03' W 072°11'3 2.6
2015-Aug-23 16:28N 41°00' W 072°11'0 0.0
2015-Aug-23 15:31N 41°00' W 072°11'0 0.0
2015-Aug-23 14:31N 41°00' W 072°11'0 0.0
2015-Aug-23 13:31N 41°00' W 072°11'0 0.0
2015-Aug-23 12:31N 41°00' W 072°11'0 0.0
2015-Aug-23 11:28N 41°00' W 072°11'0 0.0
2015-Aug-23 10:31N 41°00' W 072°11'0 0.0
2015-Aug-23 09:28N 41°00' W 072°11'0 0.0
2015-Aug-23 08:31N 41°00' W 072°11'0 0.0
2015-Aug-23 07:31N 41°00' W 072°11'0 0.0
2015-Aug-23 06:31N 41°00' W 072°11'0 0.0
2015-Aug-23 05:31N 41°00' W 072°11'0 0.0
2015-Aug-23 04:28N 41°00' W 072°11'0 0.0
2015-Aug-23 03:31N 41°00' W 072°11'0 0.0
2015-Aug-23 02:31N 41°00' W 072°11'0 0.0
2015-Aug-23 01:31N 41°00' W 072°11'0 0.0
2015-Aug-23 00:31N 41°00' W 072°11'0 0.0
2015-Aug-22 23:31N 41°00' W 072°11'0 0.0
2015-Aug-22 22:25N 41°00' W 072°11'0 0.0
2015-Aug-22 21:31N 41°00' W 072°11'0 0.0
2015-Aug-22 20:28N 41°00' W 072°11'0 0.0
2015-Aug-22 19:31N 41°00' W 072°11'0 0.0
2015-Aug-22 18:31N 41°00' W 072°11'0 0.0
2015-Aug-22 17:31N 41°00' W 072°11'0 0.0
2015-Aug-22 16:31N 41°00' W 072°11'0 0.0
2015-Aug-22 15:31N 41°00' W 072°11'0 0.0
2015-Aug-22 14:31N 41°00' W 072°11'0 0.0
2015-Aug-22 13:31N 41°00' W 072°11'0 0.0
2015-Aug-22 12:31N 41°00' W 072°11'0 0.0
2015-Aug-22 11:31N 41°00' W 072°11'0 0.0
2015-Aug-22 10:31N 41°00' W 072°11'0 0.0
2015-Aug-22 09:31N 41°00' W 072°11'0 0.0
2015-Aug-22 08:31N 41°00' W 072°11'0 0.0
2015-Aug-22 07:31N 41°00' W 072°11'0 0.0
2015-Aug-22 06:31N 41°00' W 072°11'0 0.0
2015-Aug-22 05:31N 41°00' W 072°11'0 0.0
2015-Aug-22 04:31N 41°00' W 072°11'0 0.0
2015-Aug-22 03:31N 41°00' W 072°11'0 0.0
2015-Aug-22 02:31N 41°00' W 072°11'0 0.0
2015-Aug-22 01:31N 41°00' W 072°11'0 0.0
2015-Aug-22 00:31N 41°00' W 072°11'0 0.0
2015-Aug-21 23:31N 41°00' W 072°11'0 0.0
2015-Aug-21 22:31N 41°00' W 072°11'0 0.0
2015-Aug-21 21:31N 41°00' W 072°11'0 0.0
2015-Aug-21 20:31N 41°00' W 072°11'0 0.0
2015-Aug-21 19:31N 41°00' W 072°11'0 0.0
2015-Aug-21 18:31N 41°00' W 072°11'0 0.0
2015-Aug-21 17:31N 41°00' W 072°11'0 0.0
2015-Aug-21 16:31N 41°00' W 072°11'0 0.0
2015-Aug-21 15:31N 41°00' W 072°11'0 0.0
2015-Aug-21 14:25N 41°00' W 072°11'0 0.0
2015-Aug-21 13:19N 41°00' W 072°11'0 0.0
2015-Aug-21 12:31N 41°00' W 072°11'0 0.0
2015-Aug-21 11:31N 41°00' W 072°11'0 0.0
2015-Aug-21 10:31N 41°00' W 072°11'0 0.0
2015-Aug-21 09:31N 41°00' W 072°11'0 0.0
2015-Aug-21 08:31N 41°00' W 072°11'0 0.0
2015-Aug-21 07:31N 41°00' W 072°11'0 0.0
2015-Aug-21 06:31N 41°00' W 072°11'0 0.0
2015-Aug-21 05:31N 41°00' W 072°11'0 0.0
2015-Aug-21 04:31N 41°00' W 072°11'0 0.0
2015-Aug-21 03:31N 41°00' W 072°11'0 0.0
2015-Aug-21 02:31N 41°00' W 072°11'0 0.0
2015-Aug-21 01:31N 41°00' W 072°11'0 0.0
2015-Aug-21 00:31N 41°00' W 072°11'0 0.0
2015-Aug-20 23:31N 41°00' W 072°11'0 0.0
2015-Aug-20 22:31N 41°00' W 072°11'0 0.0
2015-Aug-20 21:31N 41°00' W 072°11'0 0.0
2015-Aug-20 20:22N 41°00' W 072°11'0 0.0
2015-Aug-20 19:31N 41°00' W 072°11'0 0.0
2015-Aug-20 18:31N 41°00' W 072°11'0 0.0
2015-Aug-20 17:31N 41°00' W 072°11'0 0.0
2015-Aug-20 16:31N 41°00' W 072°11'0 0.0
2015-Aug-20 15:31N 41°00' W 072°11'0 0.0
2015-Aug-20 14:28N 41°00' W 072°11'0 0.0
2015-Aug-20 13:31N 41°00' W 072°11'  
Track history (hours):
 
Tides and Currents Weather Stations Pressure Air Temp Water Temp Dewpoint Dewpoint Depression Visibility Wind Speed Wind Dir Waves Ship Positions

Ocean Drive

Last reported at 2015-Aug-30 08:15 UTC. Time now 2015-Aug-30 20:00 UTC.
Position N 39°23' W 074°26'.

; draft 2 m.

MMSI: 319901000.

Date/timePositionNaut miles runAvg speedWind from/ knotsBaromVisibWave heightAir tempDewpointWater temp
2015-Aug-30 08:15N 39°23' W 074°26'0 0.0
2015-Aug-29 12:33N 39°23' W 074°26'155 7.7
2015-Aug-28 16:27N 41°08' W 071°56'8 8.5
2015-Aug-28 15:33N 41°09' W 072°06'7 7.3
2015-Aug-28 14:34N 41°03' W 072°11'2 2.4
2015-Aug-28 13:33N 41°00' W 072°11'0 0.0
2015-Aug-28 12:33N 41°00' W 072°11'0 0.0
2015-Aug-28 11:33N 41°00' W 072°11'0 0.0
2015-Aug-28 10:27N 41°00' W 072°11'0 0.0
2015-Aug-28 09:33N 41°00' W 072°11'0 0.0
2015-Aug-28 08:33N 41°00' W 072°11'0 0.0
2015-Aug-28 07:33N 41°00' W 072°11'0 0.0
2015-Aug-28 06:33N 41°00' W 072°11'0 0.0
2015-Aug-28 05:33N 41°00' W 072°11'0 0.0
2015-Aug-28 04:33N 41°00' W 072°11'0 0.0
2015-Aug-28 03:33N 41°00' W 072°11'0 0.0
2015-Aug-28 02:33N 41°00' W 072°11'0 0.0
2015-Aug-28 01:33N 41°00' W 072°11'0 0.0
2015-Aug-28 00:33N 41°00' W 072°11'0 0.0
2015-Aug-27 23:33N 41°00' W 072°11'0 0.0
2015-Aug-27 22:33N 41°00' W 072°11'0 0.0
2015-Aug-27 21:30N 41°00' W 072°11'0 0.0
2015-Aug-27 20:33N 41°00' W 072°11'0 0.0
2015-Aug-27 19:33N 41°00' W 072°11'0 0.0
2015-Aug-27 18:33N 41°00' W 072°11'0 0.0
2015-Aug-27 17:33N 41°00' W 072°11'0 0.0
2015-Aug-27 16:30N 41°00' W 072°11'0 0.0
2015-Aug-27 15:33N 41°00' W 072°11'0 0.0
2015-Aug-27 14:27N 41°00' W 072°11'0 0.0
2015-Aug-27 13:33N 41°00' W 072°11'0 0.0
2015-Aug-27 12:33N 41°00' W 072°11'0 0.0
2015-Aug-27 11:33N 41°00' W 072°11'0 0.0
2015-Aug-27 10:33N 41°00' W 072°11'0 0.0
2015-Aug-27 09:33N 41°00' W 072°11'0 0.0
2015-Aug-27 08:33N 41°00' W 072°11'0 0.0
2015-Aug-27 07:33N 41°00' W 072°11'0 0.0
2015-Aug-27 06:33N 41°00' W 072°11'0 0.0
2015-Aug-27 05:33N 41°00' W 072°11'0 0.0
2015-Aug-27 04:33N 41°00' W 072°11'0 0.0
2015-Aug-27 03:33N 41°00' W 072°11'0 0.0
2015-Aug-27 02:33N 41°00' W 072°11'0 0.0
2015-Aug-27 01:33N 41°00' W 072°11'0 0.0
2015-Aug-27 00:33N 41°00' W 072°11'0 0.0
2015-Aug-26 23:33N 41°00' W 072°11'0 0.0
2015-Aug-26 22:33N 41°00' W 072°11'0 0.0
2015-Aug-26 21:33N 41°00' W 072°11'0 0.0
2015-Aug-26 20:33N 41°00' W 072°11'0 0.0
2015-Aug-26 19:33N 41°00' W 072°11'0 0.0
2015-Aug-26 18:33N 41°00' W 072°11'0 0.0
2015-Aug-26 17:33N 41°00' W 072°11'0 0.0
2015-Aug-26 16:33N 41°00' W 072°11'0 0.0
2015-Aug-26 15:33N 41°00' W 072°11'0 0.0
2015-Aug-26 14:33N 41°00' W 072°11'0 0.0
2015-Aug-26 13:32N 41°00' W 072°11'0 0.0
2015-Aug-26 12:33N 41°00' W 072°11'0 0.0
2015-Aug-26 11:32N 41°00' W 072°11'0 0.0
2015-Aug-26 10:32N 41°00' W 072°11'0 0.0
2015-Aug-26 09:32N 41°00' W 072°11'0 0.0
2015-Aug-26 08:29N 41°00' W 072°11'0 0.0
2015-Aug-26 07:33N 41°00' W 072°11'0 0.0
2015-Aug-26 06:32N 41°00' W 072°11'0 0.0
2015-Aug-26 05:32N 41°00' W 072°11'0 0.0
2015-Aug-26 04:33N 41°00' W 072°11'0 0.0
2015-Aug-26 03:32N 41°00' W 072°11'0 0.0
2015-Aug-26 02:32N 41°00' W 072°11'0 0.0
2015-Aug-26 01:32N 41°00' W 072°11'0 0.0
2015-Aug-26 00:32N 41°00' W 072°11'0 0.0
2015-Aug-25 23:32N 41°00' W 072°11'0 0.0
2015-Aug-25 22:32N 41°00' W 072°11'0 0.0
2015-Aug-25 21:32N 41°00' W 072°11'0 0.0
2015-Aug-25 20:32N 41°00' W 072°11'0 0.0
2015-Aug-25 19:32N 41°00' W 072°11'0 0.0
2015-Aug-25 18:32N 41°00' W 072°11'0 0.0
2015-Aug-25 17:32N 41°00' W 072°11'0 0.0
2015-Aug-25 16:32N 41°00' W 072°11'0 0.0
2015-Aug-25 15:32N 41°00' W 072°11'0 0.0
2015-Aug-25 14:32N 41°00' W 072°11'0 0.0
2015-Aug-25 13:32N 41°00' W 072°11'0 0.0
2015-Aug-25 12:32N 41°00' W 072°11'0 0.0
2015-Aug-25 11:32N 41°00' W 072°11'0 0.0
2015-Aug-25 10:32N 41°00' W 072°11'0 0.0
2015-Aug-25 09:32N 41°00' W 072°11'0 0.0
2015-Aug-25 08:32N 41°00' W 072°11'0 0.0
2015-Aug-25 07:32N 41°00' W 072°11'0 0.0
2015-Aug-25 06:32N 41°00' W 072°11'0 0.0
2015-Aug-25 05:32N 41°00' W 072°11'0 0.0
2015-Aug-25 04:29N 41°00' W 072°11'0 0.0
2015-Aug-25 03:32N 41°00' W 072°11'0 0.0
2015-Aug-25 02:32N 41°00' W 072°11'0 0.0
2015-Aug-25 01:32N 41°00' W 072°11'0 0.0
2015-Aug-25 00:32N 41°00' W 072°11'0 0.0
2015-Aug-24 23:32N 41°00' W 072°11'0 0.0
2015-Aug-24 22:32N 41°00' W 072°11'0 0.0
2015-Aug-24 21:32N 41°00' W 072°11'0 0.0
2015-Aug-24 20:32N 41°00' W 072°11'0 0.0
2015-Aug-24 19:29N 41°00' W 072°11'0 0.0
2015-Aug-24 18:32N 41°00' W 072°11'0 0.0
2015-Aug-24 17:32N 41°00' W 072°11'0 0.0
2015-Aug-24 12:32N 41°00' W 072°11'0 0.0
2015-Aug-24 11:26N 41°00' W 072°11'0 0.0
2015-Aug-24 10:29N 41°00' W 072°11'0 0.0
2015-Aug-24 09:32N 41°00' W 072°11'0 0.0
2015-Aug-24 08:32N 41°00' W 072°11'0 0.0
2015-Aug-24 07:32N 41°00' W 072°11'0 0.0
2015-Aug-24 06:32N 41°00' W 072°11'0 0.0
2015-Aug-24 05:32N 41°00' W 072°11'0 0.0
2015-Aug-24 04:29N 41°00' W 072°11'0 0.0
2015-Aug-24 03:32N 41°00' W 072°11'0 0.0
2015-Aug-24 02:32N 41°00' W 072°11'0 0.0
2015-Aug-24 01:33N 41°00' W 072°11'0 0.0
2015-Aug-24 00:33N 41°00' W 072°11'0 0.0
2015-Aug-23 23:33N 41°00' W 072°11'0 0.0
2015-Aug-23 22:33N 41°00' W 072°11'6 5.9
2015-Aug-23 21:33N 41°05' W 072°07'0 0.0
2015-Aug-23 20:32N 41°05' W 072°07'0 0.0
2015-Aug-23 19:32N 41°05' W 072°07'0 0.0
2015-Aug-23 18:32N 41°05' W 072°07'4 4.0
2015-Aug-23 17:33N 41°03' W 072°11'3 2.6
2015-Aug-23 16:28N 41°00' W 072°11'0 0.0
2015-Aug-23 15:31N 41°00' W 072°11'0 0.0
2015-Aug-23 14:31N 41°00' W 072°11'0 0.0
2015-Aug-23 13:31N 41°00' W 072°11'0 0.0
2015-Aug-23 12:31N 41°00' W 072°11'0 0.0
2015-Aug-23 11:28N 41°00' W 072°11'0 0.0
2015-Aug-23 10:31N 41°00' W 072°11'0 0.0
2015-Aug-23 09:28N 41°00' W 072°11'0 0.0
2015-Aug-23 08:31N 41°00' W 072°11'0 0.0
2015-Aug-23 07:31N 41°00' W 072°11'0 0.0
2015-Aug-23 06:31N 41°00' W 072°11'0 0.0
2015-Aug-23 05:31N 41°00' W 072°11'0 0.0
2015-Aug-23 04:28N 41°00' W 072°11'0 0.0
2015-Aug-23 03:31N 41°00' W 072°11'0 0.0
2015-Aug-23 02:31N 41°00' W 072°11'0 0.0
2015-Aug-23 01:31N 41°00' W 072°11'0 0.0
2015-Aug-23 00:31N 41°00' W 072°11'0 0.0
2015-Aug-22 23:31N 41°00' W 072°11'0 0.0
2015-Aug-22 22:25N 41°00' W 072°11'0 0.0
2015-Aug-22 21:31N 41°00' W 072°11'0 0.0
2015-Aug-22 20:28N 41°00' W 072°11'0 0.0
2015-Aug-22 19:31N 41°00' W 072°11'0 0.0
2015-Aug-22 18:31N 41°00' W 072°11'0 0.0
2015-Aug-22 17:31N 41°00' W 072°11'0 0.0
2015-Aug-22 16:31N 41°00' W 072°11'0 0.0
2015-Aug-22 15:31N 41°00' W 072°11'0 0.0
2015-Aug-22 14:31N 41°00' W 072°11'0 0.0
2015-Aug-22 13:31N 41°00' W 072°11'0 0.0
2015-Aug-22 12:31N 41°00' W 072°11'0 0.0
2015-Aug-22 11:31N 41°00' W 072°11'0 0.0
2015-Aug-22 10:31N 41°00' W 072°11'0 0.0
2015-Aug-22 09:31N 41°00' W 072°11'0 0.0
2015-Aug-22 08:31N 41°00' W 072°11'0 0.0
2015-Aug-22 07:31N 41°00' W 072°11'0 0.0
2015-Aug-22 06:31N 41°00' W 072°11'0 0.0
2015-Aug-22 05:31N 41°00' W 072°11'0 0.0
2015-Aug-22 04:31N 41°00' W 072°11'0 0.0
2015-Aug-22 03:31N 41°00' W 072°11'0 0.0
2015-Aug-22 02:31N 41°00' W 072°11'0 0.0
2015-Aug-22 01:31N 41°00' W 072°11'0 0.0
2015-Aug-22 00:31N 41°00' W 072°11'0 0.0
2015-Aug-21 23:31N 41°00' W 072°11'0 0.0
2015-Aug-21 22:31N 41°00' W 072°11'0 0.0
2015-Aug-21 21:31N 41°00' W 072°11'0 0.0
2015-Aug-21 20:31N 41°00' W 072°11'0 0.0
2015-Aug-21 19:31N 41°00' W 072°11'0 0.0
2015-Aug-21 18:31N 41°00' W 072°11'0 0.0
2015-Aug-21 17:31N 41°00' W 072°11'0 0.0
2015-Aug-21 16:31N 41°00' W 072°11'0 0.0
2015-Aug-21 15:31N 41°00' W 072°11'0 0.0
2015-Aug-21 14:25N 41°00' W 072°11'0 0.0
2015-Aug-21 13:19N 41°00' W 072°11'0 0.0
2015-Aug-21 12:31N 41°00' W 072°11'0 0.0
2015-Aug-21 11:31N 41°00' W 072°11'0 0.0
2015-Aug-21 10:31N 41°00' W 072°11'0 0.0
2015-Aug-21 09:31N 41°00' W 072°11'0 0.0
2015-Aug-21 08:31N 41°00' W 072°11'0 0.0
2015-Aug-21 07:31N 41°00' W 072°11'0 0.0
2015-Aug-21 06:31N 41°00' W 072°11'0 0.0
2015-Aug-21 05:31N 41°00' W 072°11'0 0.0
2015-Aug-21 04:31N 41°00' W 072°11'0 0.0
2015-Aug-21 03:31N 41°00' W 072°11'0 0.0
2015-Aug-21 02:31N 41°00' W 072°11'0 0.0
2015-Aug-21 01:31N 41°00' W 072°11'0 0.0
2015-Aug-21 00:31N 41°00' W 072°11'0 0.0
2015-Aug-20 23:31N 41°00' W 072°11'0 0.0
2015-Aug-20 22:31N 41°00' W 072°11'0 0.0
2015-Aug-20 21:31N 41°00' W 072°11'0 0.0
2015-Aug-20 20:22N 41°00' W 072°11'0 0.0
2015-Aug-20 19:31N 41°00' W 072°11'0 0.0
2015-Aug-20 18:31N 41°00' W 072°11'0 0.0
2015-Aug-20 17:31N 41°00' W 072°11'0 0.0
2015-Aug-20 16:31N 41°00' W 072°11'0 0.0
2015-Aug-20 15:31N 41°00' W 072°11'0 0.0
2015-Aug-20 14:28N 41°00' W 072°11'0 0.0
2015-Aug-20 13:31N 41°00' W 072°11'  

Dump ship's entire track history